YCOP weather

Copmanhurst Oval Helipad
Copmanhurst, New South Wales, Australia

Public forecast

Using degrees Celsius for public forecast. Weather courtesy of forecast.io.

METAR (pilot weather report)

Closest report is Grafton Airport, 16.9 nm (31.2 km) SE. Retrieved 2019/02/16 23:00 UTC (47 minutes ago):

YGFN 162300Z AUTO 25004KT 9999 // SCT036 BKN056 26/16 Q1016

TAF (pilot weather forecast)

Closest forecast is Gold Coast Airport, 93.8 nm (173.7 km) NNE. Retrieved 2019/02/16 18:00 UTC (6 hours ago):

TAF YBCG 161726Z 1618/1718 20008KT 9999 FEW035 SCT060 FM170000 13014KT 9999 SCT045 FM170800 15008KT 9999 FEW040 FM171200 20007KT 9999 SCT035